Time;durP1;ratioP1;P1;durP2;ratioP2;P2;SDS_P1;SDS_P2;PMS_P1;PMS_P2;Temp;Humidity;BMP_temperature;BMP_pressure;BME280_temperature;BME280_humidity;BME280_pressure;Samples;Min_cycle;Max_cycle;Signal;HPM_P1;HPM_P2
2023/02/27 00:00:21;;;;;;;1.85;1.52;;;5.10;76.50;;;;;;5047022;28;20029;-57
2023/02/27 00:02:47;;;;;;;2.83;1.48;;;5.00;76.40;;;;;;5046659;28;20195;-55
2023/02/27 00:05:13;;;;;;;1.88;1.45;;;5.00;76.50;;;;;;5045316;28;20435;-54
2023/02/27 00:07:38;;;;;;;5.20;1.65;;;5.00;76.50;;;;;;5028646;28;20037;-54
2023/02/27 00:10:04;;;;;;;2.47;1.88;;;5.00;76.50;;;;;;5045213;28;20347;-55
2023/02/27 00:12:36;;;;;;;3.47;1.70;;;5.00;76.40;;;;;;5044933;28;20036;-55
2023/02/27 00:15:05;;;;;;;2.88;1.15;;;5.00;76.40;;;;;;5045173;28;20034;-54
2023/02/27 00:17:31;;;;;;;4.10;1.38;;;5.00;77.20;;;;;;5044914;28;20030;-54
2023/02/27 00:19:56;;;;;;;2.38;1.60;;;5.00;76.50;;;;;;5045062;28;20081;-54
2023/02/27 00:22:22;;;;;;;1.95;1.40;;;5.00;76.60;;;;;;5044655;28;20044;-54
2023/02/27 00:24:47;;;;;;;2.63;1.60;;;5.00;76.60;;;;;;5045119;28;20060;-54
2023/02/27 00:27:13;;;;;;;2.55;1.45;;;4.90;76.70;;;;;;5046044;28;20026;-55
2023/02/27 00:29:38;;;;;;;2.63;1.40;;;5.00;76.70;;;;;;5046295;28;20040;-55
2023/02/27 00:32:04;;;;;;;1.92;1.60;;;5.00;76.60;;;;;;5044875;28;20025;-54
2023/02/27 00:34:29;;;;;;;1.75;1.60;;;4.90;76.70;;;;;;5044933;28;20042;-55
2023/02/27 00:36:55;;;;;;;2.33;1.50;;;5.00;76.70;;;;;;5046102;28;20052;-55
2023/02/27 00:39:20;;;;;;;2.33;1.52;;;5.00;76.60;;;;;;5044740;28;20022;-54
2023/02/27 00:41:46;;;;;;;2.20;1.63;;;5.00;76.60;;;;;;5044491;28;20168;-55
2023/02/27 00:44:11;;;;;;;1.30;1.20;;;4.90;76.50;;;;;;5044429;28;20129;-54
2023/02/27 00:46:37;;;;;;;2.65;1.50;;;4.90;76.50;;;;;;5045632;28;20063;-55
2023/02/27 00:49:02;;;;;;;1.98;1.50;;;4.90;76.50;;;;;;5045428;28;20041;-55
2023/02/27 00:51:28;;;;;;;2.72;1.40;;;4.90;76.50;;;;;;5044362;28;20048;-55
2023/02/27 00:53:53;;;;;;;3.63;1.33;;;4.90;76.50;;;;;;5044336;28;20339;-54
2023/02/27 00:56:19;;;;;;;1.50;1.40;;;4.90;76.50;;;;;;5045753;28;20045;-57
2023/02/27 00:58:44;;;;;;;1.63;1.40;;;4.90;76.50;;;;;;5044219;28;20056;-57
2023/02/27 01:01:10;;;;;;;1.63;1.35;;;4.90;76.40;;;;;;5044104;28;20025;-57
2023/02/27 01:03:35;;;;;;;4.38;1.40;;;4.90;76.50;;;;;;5045703;28;20071;-57
2023/02/27 01:06:01;;;;;;;1.48;1.27;;;4.80;76.50;;;;;;5045743;28;20393;-54
2023/02/27 01:08:26;;;;;;;2.28;1.38;;;4.80;76.50;;;;;;5045720;28;20030;-54
2023/02/27 01:10:54;;;;;;;3.03;1.38;;;4.80;76.60;;;;;;5044220;28;20342;-57
2023/02/27 01:13:20;;;;;;;2.97;1.52;;;4.80;76.50;;;;;;5043893;28;20052;-57
2023/02/27 01:15:45;;;;;;;2.28;1.27;;;4.80;76.60;;;;;;5044108;28;20030;-57
2023/02/27 01:18:11;;;;;;;1.90;1.40;;;4.80;76.70;;;;;;5045413;28;20072;-57
2023/02/27 01:20:36;;;;;;;1.73;1.40;;;4.80;76.60;;;;;;5043898;28;20033;-57
2023/02/27 01:23:02;;;;;;;2.35;1.67;;;4.80;76.70;;;;;;5043838;28;20045;-57
2023/02/27 01:25:28;;;;;;;2.95;1.73;;;4.80;76.70;;;;;;5043937;28;20026;-57
2023/02/27 01:27:53;;;;;;;3.45;1.73;;;4.80;76.70;;;;;;5045070;28;20029;-57
2023/02/27 01:30:19;;;;;;;2.97;1.48;;;4.80;76.80;;;;;;5045117;28;20085;-57
2023/02/27 01:32:44;;;;;;;1.77;1.40;;;4.80;76.70;;;;;;5044883;28;20041;-57
2023/02/27 01:35:10;;;;;;;3.05;1.48;;;4.80;76.70;;;;;;5043532;28;20048;-57
2023/02/27 01:37:35;;;;;;;2.55;1.88;;;4.70;76.70;;;;;;5043280;28;20040;-54
2023/02/27 01:40:02;;;;;;;1.48;1.27;;;4.80;76.90;;;;;;5043328;28;20067;-55
2023/02/27 01:42:27;;;;;;;1.70;1.50;;;4.80;76.80;;;;;;5027037;28;20029;-54
2023/02/27 01:45:11;;;;;;;1.58;1.45;;;4.80;76.90;;;;;;5043358;28;20030;-54
2023/02/27 01:47:39;;;;;;;2.20;1.40;;;4.80;76.90;;;;;;5044712;28;20026;-54
2023/02/27 01:50:05;;;;;;;1.60;1.23;;;4.80;76.80;;;;;;5043395;28;20079;-55
2023/02/27 01:52:30;;;;;;;1.95;1.42;;;4.80;76.90;;;;;;5043367;28;20045;-54
2023/02/27 01:54:56;;;;;;;1.42;1.30;;;4.70;76.80;;;;;;5043461;28;20043;-54
2023/02/27 01:57:21;;;;;;;1.27;1.17;;;4.80;77.00;;;;;;5043271;28;20084;-54
2023/02/27 01:59:47;;;;;;;2.47;1.67;;;4.80;76.90;;;;;;5043280;28;20041;-54
2023/02/27 02:02:22;;;;;;;1.83;1.42;;;4.70;76.90;;;;;;5043373;28;20018;-54
2023/02/27 02:04:48;;;;;;;2.85;1.60;;;4.70;77.10;;;;;;5043370;28;20018;-54
2023/02/27 02:07:15;;;;;;;2.72;1.60;;;4.70;77.00;;;;;;5043055;28;20031;-54
2023/02/27 02:09:44;;;;;;;1.52;1.40;;;4.70;77.00;;;;;;5043254;28;20037;-54
2023/02/27 02:12:11;;;;;;;2.08;1.50;;;4.70;77.00;;;;;;5042989;28;20040;-57
2023/02/27 02:14:37;;;;;;;2.17;1.50;;;4.70;77.00;;;;;;5043167;28;20033;-57
2023/02/27 02:17:31;;;;;;;1.65;1.35;;;4.70;77.00;;;;;;5043028;28;20037;-57
2023/02/27 02:20:16;;;;;;;2.58;1.58;;;4.70;77.10;;;;;;5043500;28;20038;-54
2023/02/27 02:23:01;;;;;;;1.88;1.27;;;4.70;77.10;;;;;;5044448;28;20021;-54
2023/02/27 02:26:10;;;;;;;1.85;1.45;;;4.70;77.10;;;;;;5059698;28;20041;-54
2023/02/27 02:29:00;;;;;;;2.47;1.48;;;4.70;77.20;;;;;;5041956;28;20022;-54
2023/02/27 02:32:02;;;;;;;1.90;1.45;;;4.70;77.10;;;;;;5025499;28;20037;-54
2023/02/27 02:34:33;;;;;;;1.90;1.48;;;4.70;77.10;;;;;;5057062;28;20045;-54
2023/02/27 02:37:02;;;;;;;1.88;1.50;;;4.60;77.00;;;;;;5044310;28;20048;-55
2023/02/27 02:39:36;;;;;;;2.50;1.65;;;4.60;77.20;;;;;;5044135;28;20033;-54
2023/02/27 02:42:03;;;;;;;2.38;1.65;;;4.60;77.20;;;;;;5044194;28;20022;-57
2023/02/27 02:44:47;;;;;;;1.70;1.58;;;4.60;77.20;;;;;;5044480;28;20351;-57
2023/02/27 02:47:42;;;;;;;2.63;1.70;;;4.60;77.10;;;;;;5043127;28;20025;-54
2023/02/27 02:50:25;;;;;;;1.85;1.42;;;4.60;77.10;;;;;;5042990;28;20068;-54
2023/02/27 02:53:34;;;;;;;1.88;1.50;;;4.60;77.20;;;;;;5046564;28;20124;-54
2023/02/27 02:56:18;;;;;;;1.60;1.40;;;4.60;77.20;;;;;;5047687;28;20032;-54
2023/02/27 02:59:03;;;;;;;2.10;1.63;;;4.60;77.20;;;;;;5046519;28;20048;-54
2023/02/27 03:01:59;;;;;;;1.58;1.48;;;4.60;77.20;;;;;;5047742;28;20049;-54
2023/02/27 03:04:37;;;;;;;2.90;1.30;;;4.60;77.20;;;;;;5046343;28;20049;-55
2023/02/27 03:07:13;;;;;;;1.67;1.40;;;4.60;77.20;;;;;;5046629;28;20056;-54
2023/02/27 03:09:51;;;;;;;2.80;1.60;;;4.60;77.20;;;;;;5046300;28;20055;-57
2023/02/27 03:12:18;;;;;;;1.73;1.60;;;4.60;77.40;;;;;;5046462;28;20175;-57
2023/02/27 03:14:57;;;;;;;1.60;1.40;;;4.60;77.40;;;;;;5046414;28;20036;-57
2023/02/27 03:17:37;;;;;;;1.92;1.70;;;4.60;77.40;;;;;;5046285;28;20041;-54
2023/02/27 03:20:06;;;;;;;2.30;1.67;;;4.60;77.50;;;;;;5046447;28;20025;-54
2023/02/27 03:22:34;;;;;;;1.73;1.42;;;4.60;77.50;;;;;;5029402;28;20029;-55
2023/02/27 03:25:01;;;;;;;2.25;1.70;;;4.60;77.40;;;;;;5046187;28;20034;-54
2023/02/27 03:27:30;;;;;;;1.58;1.35;;;4.60;77.50;;;;;;5046020;28;20034;-57
2023/02/27 03:30:02;;;;;;;1.67;1.50;;;4.60;77.50;;;;;;5045896;28;20044;-57
2023/02/27 03:32:41;;;;;;;2.63;1.45;;;4.60;77.50;;;;;;5045845;28;20454;-57
2023/02/27 03:35:07;;;;;;;1.60;1.50;;;4.60;77.50;;;;;;5045945;28;20030;-57
2023/02/27 03:38:03;;;;;;;1.52;1.38;;;4.60;77.60;;;;;;5045870;28;20089;-57
2023/02/27 03:40:45;;;;;;;2.40;1.58;;;4.60;77.60;;;;;;5045874;28;20025;-57
2023/02/27 03:44:01;;;;;;;2.47;1.58;;;4.60;77.60;;;;;;5045776;28;20068;-55
2023/02/27 03:46:26;;;;;;;7.43;1.60;;;4.60;77.70;;;;;;5046057;28;20030;-54
2023/02/27 03:48:52;;;;;;;2.63;1.48;;;4.60;77.70;;;;;;5045279;28;20068;-54
2023/02/27 03:51:20;;;;;;;1.50;1.40;;;4.70;77.70;;;;;;5047119;28;20053;-54
2023/02/27 03:54:08;;;;;;;2.17;1.80;;;4.60;77.60;;;;;;5045504;28;20033;-54
2023/02/27 03:56:44;;;;;;;4.28;1.70;;;4.60;77.70;;;;;;5046732;28;20022;-54
2023/02/27 03:59:09;;;;;;;2.88;1.92;;;4.60;77.70;;;;;;5045501;28;20025;-54
2023/02/27 04:01:35;;;;;;;2.42;1.80;;;4.60;77.70;;;;;;5044791;28;20082;-57
2023/02/27 04:04:06;;;;;;;4.50;1.70;;;4.60;77.70;;;;;;5045412;28;20022;-57
2023/02/27 04:09:23;;;;;;;3.00;1.70;;;4.60;77.70;;;;;;5045520;28;20067;-56
2023/02/27 04:12:44;;;;;;;4.20;2.00;;;4.60;77.60;;;;;;5045340;28;20030;-56
2023/02/27 04:15:32;;;;;;;1.90;1.60;;;4.60;77.70;;;;;;5044144;28;20037;-56
2023/02/27 04:18:20;;;;;;;2.10;1.50;;;4.60;77.70;;;;;;5028294;28;20358;-56
2023/02/27 04:21:06;;;;;;;4.57;1.70;;;4.60;77.70;;;;;;5045453;28;20021;-56
2023/02/27 04:23:44;;;;;;;2.92;2.00;;;4.60;77.80;;;;;;5028350;28;20026;-56
2023/02/27 04:26:15;;;;;;;2.15;1.55;;;4.60;77.70;;;;;;5046412;28;20021;-56
2023/02/27 04:28:41;;;;;;;2.00;1.80;;;4.60;77.70;;;;;;5045211;28;20026;-59
2023/02/27 04:31:24;;;;;;;2.90;1.92;;;4.60;77.80;;;;;;5046407;28;20029;-59
2023/02/27 04:33:58;;;;;;;2.33;1.65;;;4.60;77.70;;;;;;5044758;28;20089;-59
2023/02/27 04:36:36;;;;;;;2.83;1.60;;;4.60;77.60;;;;;;5045006;28;20033;-57
2023/02/27 04:39:09;;;;;;;1.77;1.67;;;4.60;77.60;;;;;;5045330;28;20033;-56
2023/02/27 04:41:37;;;;;;;2.17;1.60;;;4.50;77.40;;;;;;5044512;28;20029;-56
2023/02/27 04:44:02;;;;;;;1.85;1.67;;;4.50;77.40;;;;;;5044660;28;20056;-56
2023/02/27 04:46:28;;;;;;;2.83;1.85;;;4.60;77.50;;;;;;5044579;28;20029;-56
2023/02/27 04:48:58;;;;;;;2.28;1.80;;;4.50;77.40;;;;;;5044324;28;20033;-56
2023/02/27 04:51:27;;;;;;;3.05;1.67;;;4.50;77.40;;;;;;5044525;28;20040;-56
2023/02/27 04:54:03;;;;;;;1.95;1.65;;;4.50;77.30;;;;;;5044318;28;20034;-56
2023/02/27 04:56:41;;;;;;;2.55;1.60;;;4.60;77.40;;;;;;5044388;28;20036;-56
2023/02/27 04:59:19;;;;;;;2.60;1.60;;;4.60;77.50;;;;;;5044323;28;20033;-56
2023/02/27 05:01:48;;;;;;;1.95;1.67;;;4.50;77.40;;;;;;5044365;28;20044;-56
2023/02/27 05:04:15;;;;;;;2.35;1.40;;;4.50;77.30;;;;;;5044250;28;20029;-56
2023/02/27 05:06:42;;;;;;;3.42;1.75;;;4.50;77.40;;;;;;5044255;28;20041;-56
2023/02/27 05:09:15;;;;;;;2.30;1.50;;;4.50;77.40;;;;;;5043818;28;20044;-56
2023/02/27 05:12:20;;;;;;;2.42;1.80;;;4.50;77.50;;;;;;5044272;28;20120;-56
2023/02/27 05:14:46;;;;;;;2.00;1.50;;;4.50;77.50;;;;;;5053828;28;20041;-56
2023/02/27 05:17:15;;;;;;;1.83;1.63;;;4.50;77.40;;;;;;5045227;28;20075;-56
2023/02/27 05:19:41;;;;;;;1.70;1.45;;;4.50;77.40;;;;;;5043810;28;20025;-56
2023/02/27 05:22:31;;;;;;;1.90;1.70;;;4.50;77.40;;;;;;5027239;28;20029;-56
2023/02/27 05:25:02;;;;;;;2.85;1.67;;;4.50;77.50;;;;;;5060347;28;20029;-56
2023/02/27 05:27:55;;;;;;;2.30;1.65;;;4.50;77.50;;;;;;5045091;28;20540;-56
2023/02/27 05:30:22;;;;;;;1.83;1.70;;;4.50;77.50;;;;;;5044044;28;20021;-59
2023/02/27 05:32:48;;;;;;;2.33;1.67;;;4.50;77.40;;;;;;5043585;28;20327;-59
2023/02/27 05:35:28;;;;;;;2.83;1.98;;;4.50;77.50;;;;;;5045177;28;20075;-59
2023/02/27 05:38:04;;;;;;;3.47;1.85;;;4.50;78.10;;;;;;5043408;28;20040;-59
2023/02/27 05:40:43;;;;;;;1.80;1.70;;;4.50;77.50;;;;;;5044772;28;20103;-56
2023/02/27 05:43:16;;;;;;;2.45;2.00;;;4.50;77.50;;;;;;5043493;28;20132;-56
2023/02/27 05:45:43;;;;;;;1.60;1.50;;;4.40;77.60;;;;;;5043285;28;20045;-56
2023/02/27 05:48:18;;;;;;;3.28;1.60;;;4.50;77.60;;;;;;5043374;28;20087;-56
2023/02/27 05:50:44;;;;;;;2.10;1.65;;;4.50;77.60;;;;;;5043293;28;20041;-56
2023/02/27 05:53:12;;;;;;;2.72;1.63;;;4.40;77.60;;;;;;5043793;28;20064;-56
2023/02/27 05:55:42;;;;;;;1.77;1.65;;;4.40;77.60;;;;;;5043810;28;20047;-59
2023/02/27 05:58:26;;;;;;;1.95;1.75;;;4.40;77.60;;;;;;5043295;28;20048;-59
2023/02/27 06:00:59;;;;;;;2.03;1.48;;;4.40;77.60;;;;;;5043457;28;20163;-56
2023/02/27 06:03:25;;;;;;;2.28;1.65;;;4.40;77.60;;;;;;5043112;28;20040;-56
2023/02/27 06:05:52;;;;;;;2.47;1.88;;;4.40;77.70;;;;;;5043090;28;20030;-56
2023/02/27 06:08:18;;;;;;;1.90;1.80;;;4.40;78.30;;;;;;5043209;28;20056;-59
2023/02/27 06:10:43;;;;;;;1.65;1.52;;;4.40;77.70;;;;;;5043263;28;20514;-58
2023/02/27 06:13:09;;;;;;;1.75;1.65;;;4.40;77.70;;;;;;5043173;28;20025;-59
2023/02/27 06:15:34;;;;;;;2.95;1.90;;;4.40;77.70;;;;;;5044639;28;20038;-59
2023/02/27 06:18:00;;;;;;;1.80;1.60;;;4.40;77.60;;;;;;5043045;28;20040;-59
2023/02/27 06:20:25;;;;;;;1.65;1.52;;;4.40;77.60;;;;;;5043468;28;20026;-59
2023/02/27 06:22:51;;;;;;;2.00;1.70;;;4.40;77.70;;;;;;5043199;28;20032;-59
2023/02/27 06:25:16;;;;;;;3.05;2.05;;;4.30;77.70;;;;;;5061928;28;20041;-58
2023/02/27 06:27:42;;;;;;;2.40;1.90;;;4.40;77.70;;;;;;5048871;28;20025;-59
2023/02/27 06:30:08;;;;;;;2.00;1.80;;;4.40;77.70;;;;;;5048553;28;20462;-59
2023/02/27 06:32:34;;;;;;;3.22;1.90;;;4.40;77.70;;;;;;5048422;28;20033;-59
2023/02/27 06:34:59;;;;;;;1.88;1.67;;;4.40;77.80;;;;;;5046873;28;20083;-59
2023/02/27 06:37:25;;;;;;;2.20;1.63;;;4.30;77.70;;;;;;5046757;28;20037;-59
2023/02/27 06:39:50;;;;;;;2.28;1.70;;;4.30;77.70;;;;;;5048026;28;20033;-59
2023/02/27 06:42:16;;;;;;;2.70;1.73;;;4.30;77.80;;;;;;5048069;28;20108;-59
2023/02/27 06:44:42;;;;;;;3.08;1.88;;;4.30;77.80;;;;;;5046760;28;20086;-59
2023/02/27 06:47:07;;;;;;;2.65;1.90;;;4.40;77.80;;;;;;5046488;28;20021;-56
2023/02/27 06:49:33;;;;;;;2.47;1.90;;;4.30;77.70;;;;;;5046468;28;20103;-56
2023/02/27 06:51:58;;;;;;;2.28;1.67;;;4.30;77.70;;;;;;5046480;28;20101;-56
2023/02/27 06:54:24;;;;;;;4.72;2.00;;;4.30;77.70;;;;;;5046416;28;20039;-56
2023/02/27 06:56:50;;;;;;;2.85;1.73;;;4.40;77.70;;;;;;5049744;28;20028;-56
2023/02/27 06:59:16;;;;;;;2.08;1.85;;;4.30;77.60;;;;;;5046246;28;20033;-56
2023/02/27 07:01:41;;;;;;;1.90;1.65;;;4.30;77.70;;;;;;5045985;28;20026;-56
2023/02/27 07:04:10;;;;;;;3.63;1.83;;;4.30;77.70;;;;;;5037600;28;20092;-56
2023/02/27 07:06:36;;;;;;;2.42;1.90;;;4.30;77.60;;;;;;5013059;28;20036;-59
2023/02/27 07:09:01;;;;;;;2.20;1.55;;;4.30;77.60;;;;;;5047469;28;20056;-59
2023/02/27 07:11:27;;;;;;;2.17;1.98;;;4.30;77.60;;;;;;5047310;28;20041;-59
2023/02/27 07:13:52;;;;;;;2.25;1.80;;;4.30;77.60;;;;;;5045374;28;20041;-59
2023/02/27 07:16:18;;;;;;;3.17;1.67;;;4.30;77.60;;;;;;5038560;28;20030;-59
2023/02/27 07:18:43;;;;;;;2.63;1.98;;;4.30;77.70;;;;;;5041511;28;20037;-59
2023/02/27 07:21:09;;;;;;;2.00;1.60;;;4.30;77.70;;;;;;5044159;28;20025;-59
2023/02/27 07:23:34;;;;;;;2.20;1.77;;;4.30;77.70;;;;;;5041708;28;20116;-58
2023/02/27 07:26:00;;;;;;;2.58;1.65;;;4.30;77.70;;;;;;5045649;28;20423;-58
2023/02/27 07:28:25;;;;;;;2.67;1.65;;;4.30;77.60;;;;;;5044928;28;20033;-56
2023/02/27 07:30:53;;;;;;;2.53;1.90;;;4.30;77.60;;;;;;5039632;28;20029;-56
2023/02/27 07:33:19;;;;;;;2.25;1.90;;;4.30;77.70;;;;;;5022159;28;20029;-56
2023/02/27 07:35:44;;;;;;;1.90;1.73;;;4.30;77.70;;;;;;5021207;28;20044;-56
2023/02/27 07:38:10;;;;;;;3.63;2.25;;;4.50;77.80;;;;;;5036924;28;20041;-56
2023/02/27 07:40:35;;;;;;;3.05;2.15;;;4.30;77.70;;;;;;5041930;28;20469;-56
2023/02/27 07:43:01;;;;;;;3.33;2.05;;;4.30;77.70;;;;;;5042163;28;20036;-56
2023/02/27 07:45:26;;;;;;;3.72;1.60;;;4.30;77.70;;;;;;5045581;28;20060;-56
2023/02/27 07:47:52;;;;;;;2.13;1.90;;;4.30;77.70;;;;;;5044926;28;20033;-58
2023/02/27 07:50:18;;;;;;;2.88;2.00;;;4.30;77.70;;;;;;5045020;28;20044;-58
2023/02/27 07:52:43;;;;;;;2.65;1.85;;;4.30;78.30;;;;;;5046265;28;20033;-59
2023/02/27 07:55:09;;;;;;;3.17;2.05;;;4.30;77.80;;;;;;5044467;28;20068;-58
2023/02/27 07:57:35;;;;;;;2.50;1.90;;;4.30;77.70;;;;;;5043581;28;20033;-58
2023/02/27 08:00:02;;;;;;;6.97;2.30;;;4.30;77.70;;;;;;5043847;28;20044;-58
2023/02/27 08:02:28;;;;;;;8.52;2.42;;;4.30;77.70;;;;;;5044900;28;20036;-58
2023/02/27 08:04:53;;;;;;;3.75;2.03;;;4.30;77.70;;;;;;5046555;28;20033;-58
2023/02/27 08:07:19;;;;;;;7.28;2.22;;;4.30;77.70;;;;;;5046291;28;20022;-58
2023/02/27 08:09:44;;;;;;;7.22;2.35;;;4.30;77.80;;;;;;5037005;28;20041;-58
2023/02/27 08:12:10;;;;;;;20.40;3.05;;;4.30;77.80;;;;;;5026708;28;20025;-58
2023/02/27 08:14:35;;;;;;;11.65;2.95;;;4.30;77.80;;;;;;5039981;28;20049;-58
2023/02/27 08:17:01;;;;;;;6.20;2.83;;;4.40;77.80;;;;;;5039610;28;20491;-58
2023/02/27 08:19:27;;;;;;;27.05;3.47;;;4.40;77.70;;;;;;5026743;28;20125;-58
2023/02/27 08:21:52;;;;;;;7.10;2.40;;;4.40;77.80;;;;;;5026593;28;20406;-58
2023/02/27 08:24:18;;;;;;;7.65;2.67;;;4.40;77.80;;;;;;5025286;28;20030;-58
2023/02/27 08:26:43;;;;;;;11.60;2.58;;;4.40;77.70;;;;;;5025132;28;20033;-58
2023/02/27 08:29:09;;;;;;;20.35;4.43;;;4.40;77.70;;;;;;5026317;28;20037;-58
2023/02/27 08:31:34;;;;;;;13.27;2.85;;;4.40;77.80;;;;;;5011413;28;20053;-58
2023/02/27 08:34:00;;;;;;;7.57;2.53;;;4.50;77.90;;;;;;5044561;28;20101;-58
2023/02/27 08:36:25;;;;;;;15.43;2.78;;;4.50;77.70;;;;;;5044663;28;20022;-58
2023/02/27 08:38:51;;;;;;;11.35;3.08;;;4.50;77.80;;;;;;5045811;28;20040;-58
2023/02/27 08:41:16;;;;;;;10.38;2.75;;;4.50;77.70;;;;;;5045854;28;20025;-56
2023/02/27 08:43:42;;;;;;;12.10;2.90;;;4.50;77.60;;;;;;5031757;28;20037;-58
2023/02/27 08:46:08;;;;;;;8.27;2.75;;;4.50;77.60;;;;;;5029420;28;20113;-58
2023/02/27 08:48:33;;;;;;;13.63;2.90;;;4.50;77.60;;;;;;5032311;28;20038;-58
2023/02/27 08:50:59;;;;;;;6.45;2.85;;;4.50;77.50;;;;;;5051120;28;20380;-58
2023/02/27 08:53:24;;;;;;;8.63;2.72;;;4.50;77.50;;;;;;5041229;28;20072;-58
2023/02/27 08:55:50;;;;;;;11.40;2.72;;;4.60;77.50;;;;;;5040565;28;20433;-58
2023/02/27 08:58:16;;;;;;;21.30;3.42;;;4.50;77.50;;;;;;5046284;28;20055;-58
2023/02/27 09:00:42;;;;;;;13.38;2.85;;;4.60;77.50;;;;;;5048477;28;20033;-58
2023/02/27 09:03:07;;;;;;;12.40;2.85;;;4.60;77.50;;;;;;5029623;28;20022;-58
2023/02/27 09:05:34;;;;;;;12.93;2.95;;;4.60;77.40;;;;;;5042944;28;20029;-58
2023/02/27 09:08:00;;;;;;;14.52;3.22;;;4.60;77.40;;;;;;5049037;28;20084;-58
2023/02/27 09:10:26;;;;;;;9.05;2.63;;;4.60;77.40;;;;;;5050006;28;20040;-58
2023/02/27 09:12:52;;;;;;;20.63;3.58;;;4.70;77.40;;;;;;5056870;28;20065;-58
2023/02/27 09:15:18;;;;;;;13.32;3.05;;;4.70;77.40;;;;;;5040590;28;20074;-58
2023/02/27 09:17:43;;;;;;;7.53;3.22;;;4.70;77.30;;;;;;5047903;28;20021;-58
2023/02/27 09:20:10;;;;;;;15.18;3.05;;;4.70;77.20;;;;;;5045672;28;20025;-58
2023/02/27 09:22:35;;;;;;;10.90;3.17;;;4.70;77.10;;;;;;5027896;28;20096;-58
2023/02/27 09:25:01;;;;;;;10.20;2.83;;;4.70;77.10;;;;;;5043845;28;20033;-58
2023/02/27 09:27:27;;;;;;;11.93;2.97;;;4.70;77.00;;;;;;5056642;28;20075;-58
2023/02/27 09:29:54;;;;;;;16.40;2.95;;;4.70;77.00;;;;;;5023639;28;20037;-58
2023/02/27 09:32:23;;;;;;;8.85;3.00;;;4.80;77.10;;;;;;5042448;28;20026;-59
2023/02/27 09:34:49;;;;;;;9.57;3.20;;;4.80;77.10;;;;;;5050185;28;20025;-59
2023/02/27 09:37:15;;;;;;;13.20;3.22;;;4.90;77.30;;;;;;5024473;28;20056;-58
2023/02/27 09:39:40;;;;;;;22.20;3.97;;;4.90;77.10;;;;;;5042720;28;20029;-58
2023/02/27 09:42:23;;;;;;;15.82;3.25;;;4.90;77.00;;;;;;5051652;28;20025;-58
2023/02/27 09:44:53;;;;;;;13.10;3.85;;;4.90;77.00;;;;;;5042906;28;20509;-59
2023/02/27 09:47:27;;;;;;;16.77;3.85;;;5.00;76.90;;;;;;5023475;28;20025;-58
2023/02/27 09:50:07;;;;;;;31.90;5.13;;;5.00;77.00;;;;;;5051413;28;20044;-58
2023/02/27 09:52:34;;;;;;;30.95;4.50;;;5.10;77.00;;;;;;5033542;28;20033;-58
2023/02/27 09:55:00;;;;;;;22.50;5.25;;;5.10;77.00;;;;;;5024469;28;20029;-58
2023/02/27 09:57:49;;;;;;;32.38;5.93;;;5.10;76.90;;;;;;5045788;28;20041;-56
2023/02/27 10:00:39;;;;;;;24.33;4.18;;;5.10;76.80;;;;;;5029359;28;20125;-56
2023/02/27 10:03:40;;;;;;;32.92;5.15;;;5.10;76.90;;;;;;5029728;28;20046;-57
2023/02/27 10:06:49;;;;;;;31.88;5.28;;;5.20;76.80;;;;;;5013186;28;20034;-56
2023/02/27 10:09:30;;;;;;;24.23;4.63;;;5.20;76.70;;;;;;5030015;28;20029;-57
2023/02/27 10:12:06;;;;;;;30.75;3.90;;;5.20;76.50;;;;;;5009485;28;20092;-56
2023/02/27 10:14:46;;;;;;;25.25;4.15;;;5.20;77.10;;;;;;5053979;28;20037;-56
2023/02/27 10:17:23;;;;;;;58.65;6.78;;;5.30;76.50;;;;;;5024076;28;20061;-56
2023/02/27 10:19:49;;;;;;;28.45;5.07;;;5.30;76.60;;;;;;5037267;28;20101;-56
2023/02/27 10:22:19;;;;;;;22.63;4.22;;;5.30;76.50;;;;;;5053310;28;20261;-56
2023/02/27 10:24:50;;;;;;;46.83;6.43;;;5.30;76.50;;;;;;5033558;28;20018;-57
2023/02/27 10:27:17;;;;;;;40.08;5.50;;;5.40;76.70;;;;;;5045891;28;20057;-57
2023/02/27 10:29:43;;;;;;;45.42;5.95;;;5.40;76.70;;;;;;5044230;28;20041;-57
2023/02/27 10:32:23;;;;;;;37.92;5.50;;;5.40;76.80;;;;;;5040430;28;20147;-57
2023/02/27 10:35:25;;;;;;;22.40;5.13;;;5.50;76.90;;;;;;5022226;28;20152;-56
2023/02/27 10:37:53;;;;;;;28.20;5.32;;;5.50;76.80;;;;;;5018449;28;20026;-56
2023/02/27 10:40:19;;;;;;;26.60;5.30;;;5.50;76.80;;;;;;5020386;28;20034;-56
2023/02/27 10:42:45;;;;;;;34.13;5.55;;;5.50;76.90;;;;;;5029866;28;20069;-56
2023/02/27 10:45:14;;;;;;;43.78;5.93;;;5.50;77.00;;;;;;5032359;28;20109;-56
2023/02/27 10:47:40;;;;;;;31.60;5.43;;;5.50;76.90;;;;;;5019391;28;20033;-56
2023/02/27 10:50:18;;;;;;;38.38;5.75;;;5.60;76.90;;;;;;5019969;28;20458;-56
2023/02/27 10:52:52;;;;;;;38.58;5.53;;;5.60;76.80;;;;;;5036540;28;20525;-57
2023/02/27 10:55:21;;;;;;;47.10;7.03;;;5.60;76.80;;;;;;5008171;28;20065;-57
2023/02/27 10:57:47;;;;;;;42.60;6.07;;;5.60;76.80;;;;;;5041274;28;20025;-56
2023/02/27 11:00:36;;;;;;;32.70;5.13;;;5.60;76.70;;;;;;5017589;28;20573;-56
2023/02/27 11:03:02;;;;;;;31.95;6.53;;;5.70;76.80;;;;;;5029750;28;20030;-57
2023/02/27 11:05:34;;;;;;;29.85;4.90;;;5.70;76.70;;;;;;5038718;28;20054;-56
2023/02/27 11:08:28;;;;;;;30.75;5.68;;;5.70;76.50;;;;;;5044925;28;20048;-56
2023/02/27 11:11:08;;;;;;;34.95;4.75;;;5.70;76.60;;;;;;5007918;28;20184;-56
2023/02/27 11:13:39;;;;;;;36.85;5.30;;;5.70;76.50;;;;;;5010881;28;20030;-56
2023/02/27 11:16:09;;;;;;;42.20;5.40;;;5.80;76.50;;;;;;5043305;28;20192;-56
2023/02/27 11:18:36;;;;;;;24.98;4.82;;;5.80;76.40;;;;;;5046176;28;20113;-56
2023/02/27 11:21:27;;;;;;;26.95;5.00;;;5.80;76.40;;;;;;5045750;28;20044;-56
2023/02/27 11:23:57;;;;;;;22.15;4.28;;;5.80;76.30;;;;;;5045353;28;20060;-56
2023/02/27 11:26:35;;;;;;;24.23;5.20;;;5.80;76.30;;;;;;5044756;28;20075;-56
2023/02/27 11:29:13;;;;;;;32.20;5.30;;;5.80;76.10;;;;;;5043582;28;20021;-56
2023/02/27 11:31:43;;;;;;;28.75;5.55;;;5.90;76.10;;;;;;5045104;28;20037;-56
2023/02/27 11:34:35;;;;;;;23.17;5.32;;;5.80;76.10;;;;;;5044737;28;20021;-56
2023/02/27 11:37:17;;;;;;;26.10;4.90;;;5.90;76.10;;;;;;5042158;28;20038;-57
2023/02/27 11:39:58;;;;;;;25.77;5.65;;;5.90;76.10;;;;;;5043140;28;20065;-56
2023/02/27 11:42:27;;;;;;;26.98;4.80;;;5.90;76.10;;;;;;5030804;28;20026;-54
2023/02/27 11:45:01;;;;;;;39.13;5.95;;;5.90;76.00;;;;;;5027348;28;20064;-54
2023/02/27 11:47:32;;;;;;;32.20;5.90;;;5.90;75.90;;;;;;5011782;28;20030;-54
2023/02/27 11:50:07;;;;;;;181.32;18.98;;;5.90;75.90;;;;;;5028873;28;20065;-54
2023/02/27 11:52:43;;;;;;;65.57;8.73;;;5.90;75.90;;;;;;5042975;28;20040;-54
2023/02/27 11:55:14;;;;;;;41.83;7.43;;;5.90;75.80;;;;;;5040940;28;20033;-54
2023/02/27 11:57:41;;;;;;;36.23;5.80;;;6.00;75.80;;;;;;5026763;28;20026;-54
2023/02/27 12:00:20;;;;;;;32.15;5.80;;;6.00;75.70;;;;;;5010174;28;20252;-54
2023/02/27 12:03:00;;;;;;;32.75;6.15;;;6.00;75.80;;;;;;5026467;28;20060;-54
2023/02/27 12:05:44;;;;;;;40.72;7.35;;;6.00;75.70;;;;;;5031329;28;20033;-54
2023/02/27 12:08:35;;;;;;;42.40;7.05;;;6.00;75.40;;;;;;5044289;28;20030;-54
2023/02/27 12:11:02;;;;;;;28.48;5.32;;;6.00;75.50;;;;;;5024584;28;20130;-54
2023/02/27 12:13:30;;;;;;;24.83;5.97;;;6.00;75.40;;;;;;5025963;28;20029;-54
2023/02/27 12:16:08;;;;;;;51.78;6.50;;;6.00;75.50;;;;;;5024752;28;20084;-54
2023/02/27 12:18:46;;;;;;;24.50;5.53;;;6.00;75.50;;;;;;5024632;28;20033;-54
2023/02/27 12:21:26;;;;;;;41.83;5.88;;;6.00;75.50;;;;;;5024762;28;20502;-54
2023/02/27 12:24:22;;;;;;;24.83;4.35;;;6.00;75.40;;;;;;5024356;28;20477;-54
2023/02/27 12:26:50;;;;;;;41.13;5.75;;;6.10;75.40;;;;;;5027135;28;20052;-54
2023/02/27 12:29:33;;;;;;;31.80;4.95;;;6.10;75.40;;;;;;5045444;28;20544;-54
2023/02/27 12:32:24;;;;;;;27.77;4.72;;;6.10;75.30;;;;;;5028351;28;20100;-54
2023/02/27 12:34:53;;;;;;;22.08;5.03;;;6.10;75.20;;;;;;5043862;28;20028;-53
2023/02/27 12:37:28;;;;;;;23.67;5.20;;;6.10;75.00;;;;;;5027027;28;20492;-56
2023/02/27 12:39:55;;;;;;;18.40;4.68;;;6.10;75.10;;;;;;5026269;28;20033;-56
2023/02/27 12:42:39;;;;;;;32.33;5.90;;;6.10;75.00;;;;;;5043169;28;20034;-57
2023/02/27 12:45:08;;;;;;;28.35;5.07;;;6.10;75.10;;;;;;5040678;28;20383;-57
2023/02/27 12:47:52;;;;;;;47.50;5.90;;;6.10;75.00;;;;;;5051905;28;20089;-56
2023/02/27 12:50:18;;;;;;;34.53;5.40;;;6.10;75.10;;;;;;5039927;28;20046;-57
2023/02/27 12:52:59;;;;;;;37.45;5.40;;;6.10;75.10;;;;;;5035698;28;20025;-56
2023/02/27 12:55:27;;;;;;;44.90;5.65;;;6.20;75.30;;;;;;5043502;28;20344;-55
2023/02/27 12:58:26;;;;;;;28.70;5.65;;;6.20;75.40;;;;;;5053250;28;20026;-56
2023/02/27 13:00:58;;;;;;;35.75;5.82;;;6.20;75.60;;;;;;5048992;28;20022;-56
2023/02/27 13:03:59;;;;;;;67.15;7.70;;;6.20;75.80;;;;;;5025116;28;20042;-56
2023/02/27 13:06:34;;;;;;;73.95;7.63;;;6.30;76.20;;;;;;5036689;28;20045;-56
2023/02/27 13:09:02;;;;;;;52.58;8.13;;;6.20;76.10;;;;;;5045348;28;20500;-56
2023/02/27 13:11:42;;;;;;;198.13;19.75;;;6.30;76.20;;;;;;5044125;28;20514;-56
2023/02/27 13:14:45;;;;;;;72.28;8.05;;;6.30;76.20;;;;;;5034555;28;20026;-56
2023/02/27 13:17:46;;;;;;;58.95;7.25;;;6.30;76.30;;;;;;5043413;28;20033;-56
2023/02/27 13:20:21;;;;;;;64.57;8.50;;;6.40;76.70;;;;;;5043305;28;20067;-56